createdAt,value
2022-12-18T00:01:26.298Z,43.20
2022-12-18T00:03:54.661Z,36.53
2022-12-18T00:06:21.736Z,36.17
2022-12-18T00:08:48.888Z,40.58
2022-12-18T00:11:18.214Z,41.05
2022-12-18T00:13:45.289Z,47.63
2022-12-18T00:16:15.646Z,42.03
2022-12-18T00:18:42.893Z,37.03
2022-12-18T00:21:13.085Z,44.03
2022-12-18T00:23:42.616Z,48.97
2022-12-18T00:26:13.853Z,43.47
2022-12-18T00:28:40.733Z,45.90
2022-12-18T00:31:13.600Z,47.70
2022-12-18T00:33:40.751Z,45.03
2022-12-18T00:36:13.609Z,46.95
2022-12-18T00:38:41.006Z,45.97
2022-12-18T00:41:09.845Z,47.67
2022-12-18T00:43:38.388Z,49.47
2022-12-18T00:46:05.833Z,39.75
2022-12-18T00:48:33.259Z,51.83
2022-12-18T00:51:00.081Z,38.10
2022-12-18T00:53:26.925Z,38.85
2022-12-18T00:55:53.674Z,43.70
2022-12-18T00:58:20.509Z,34.67
2022-12-18T01:00:47.328Z,42.20
2022-12-18T01:03:15.248Z,44.30
2022-12-18T01:05:43.340Z,37.10
2022-12-18T01:08:10.151Z,38.83
2022-12-18T01:10:36.983Z,42.30
2022-12-18T01:13:03.934Z,43.22
2022-12-18T01:15:30.811Z,43.30
2022-12-18T01:17:57.879Z,43.22
2022-12-18T01:20:24.709Z,43.20
2022-12-18T01:22:51.453Z,44.28
2022-12-18T01:25:18.252Z,44.78
2022-12-18T01:27:45.181Z,41.03
2022-12-18T01:30:12.233Z,44.78
2022-12-18T01:32:39.022Z,39.33
2022-12-18T01:35:06.593Z,41.70
2022-12-18T01:37:33.324Z,43.22
2022-12-18T01:40:00.142Z,37.95
2022-12-18T01:42:26.966Z,42.90
2022-12-18T01:45:14.636Z,38.97
2022-12-18T01:48:04.482Z,42.45
2022-12-18T01:50:34.754Z,38.03
2022-12-18T01:53:07.365Z,35.20
2022-12-18T01:55:43.786Z,35.13
2022-12-18T01:58:10.885Z,40.17
2022-12-18T02:00:37.591Z,39.90
2022-12-18T02:03:04.477Z,41.72
2022-12-18T02:06:11.045Z,41.85
2022-12-18T02:08:41.894Z,44.60
2022-12-18T02:11:19.426Z,42.05
2022-12-18T02:13:56.473Z,39.70
2022-12-18T02:16:29.841Z,41.17
2022-12-18T02:19:00.692Z,35.10
2022-12-18T02:21:38.077Z,40.65
2022-12-18T02:24:46.957Z,39.60
2022-12-18T02:27:14.566Z,40.08
2022-12-18T02:29:54.313Z,42.30
2022-12-18T02:32:28.375Z,37.90
2022-12-18T02:34:58.190Z,40.67
2022-12-18T02:37:27.640Z,34.88
2022-12-18T02:39:59.347Z,39.85
2022-12-18T02:42:28.801Z,41.72
2022-12-18T02:44:58.359Z,38.90
2022-12-18T02:47:30.782Z,39.92
2022-12-18T02:52:43.310Z,36.00
2022-12-18T02:55:37.184Z,34.78
2022-12-18T02:58:21.595Z,41.55
2022-12-18T03:01:11.916Z,36.10
2022-12-18T03:03:52.139Z,39.22
2022-12-18T03:06:24.881Z,39.47
2022-12-18T03:08:58.676Z,35.58
2022-12-18T03:11:45.898Z,38.83
2022-12-18T03:14:17.092Z,38.55
2022-12-18T03:16:45.741Z,37.13
2022-12-18T03:19:17.308Z,36.13
2022-12-18T03:21:52.144Z,36.07
2022-12-18T03:24:20.795Z,39.28
2022-12-18T03:26:53.527Z,39.25
2022-12-18T03:29:23.469Z,35.88
2022-12-18T03:31:55.980Z,37.00
2022-12-18T03:34:31.802Z,34.40
2022-12-18T03:36:58.666Z,35.78
2022-12-18T03:39:26.309Z,36.00
2022-12-18T03:42:16.982Z,35.63
2022-12-18T03:45:22.323Z,35.22
2022-12-18T03:48:08.418Z,36.05
2022-12-18T03:50:55.023Z,39.65
2022-12-18T03:53:21.688Z,35.50
2022-12-18T03:55:50.304Z,37.05
2022-12-18T03:58:21.184Z,35.97
2022-12-18T04:00:49.678Z,34.13
2022-12-18T04:03:21.521Z,33.58
2022-12-18T04:05:53.285Z,31.20
2022-12-18T04:08:21.560Z,33.22
2022-12-18T04:10:48.405Z,34.20
2022-12-18T04:13:28.876Z,33.17
2022-12-18T04:15:55.667Z,31.75
2022-12-18T04:18:22.513Z,33.92
2022-12-18T04:20:49.308Z,28.23
2022-12-18T04:23:16.111Z,32.20
2022-12-18T04:25:42.797Z,30.63
2022-12-18T04:28:09.502Z,32.05
2022-12-18T04:30:36.253Z,29.40
2022-12-18T04:33:03.098Z,30.65
2022-12-18T04:35:29.943Z,29.75
2022-12-18T04:37:56.729Z,32.22
2022-12-18T04:40:23.512Z,28.27
2022-12-18T04:42:50.341Z,29.50
2022-12-18T04:45:17.206Z,27.20
2022-12-18T04:47:43.947Z,29.00
2022-12-18T04:50:10.738Z,25.83
2022-12-18T04:52:37.681Z,28.08
2022-12-18T04:55:04.628Z,27.08
2022-12-18T04:57:31.476Z,31.25
2022-12-18T04:59:58.417Z,28.98
2022-12-18T05:02:25.428Z,30.02
2022-12-18T05:04:52.309Z,25.90
2022-12-18T05:07:19.101Z,26.52
2022-12-18T05:09:45.942Z,24.60
2022-12-18T05:12:12.683Z,24.02
2022-12-18T05:14:39.476Z,29.17
2022-12-18T05:17:06.420Z,27.95
2022-12-18T05:19:33.108Z,28.20
2022-12-18T05:22:00.048Z,25.92
2022-12-18T05:24:26.846Z,29.33
2022-12-18T05:26:53.739Z,27.65
2022-12-18T05:29:20.633Z,22.25
2022-12-18T05:31:47.348Z,23.23
2022-12-18T05:34:14.165Z,25.10
2022-12-18T05:36:41.399Z,25.67
2022-12-18T05:39:08.420Z,25.33
2022-12-18T05:41:35.322Z,28.80
2022-12-18T05:44:01.988Z,27.77
2022-12-18T05:46:29.022Z,26.55
2022-12-18T05:48:55.975Z,27.88
2022-12-18T05:51:23.678Z,23.25
2022-12-18T05:53:50.501Z,27.55
2022-12-18T05:56:20.771Z,25.63
2022-12-18T05:58:48.890Z,24.50
2022-12-18T06:01:19.295Z,26.55
2022-12-18T06:03:46.762Z,23.10
2022-12-18T06:06:23.959Z,26.80
2022-12-18T06:08:51.759Z,23.33
2022-12-18T06:11:21.590Z,24.52
2022-12-18T06:13:56.160Z,23.25
2022-12-18T06:16:25.177Z,22.85
2022-12-18T06:18:52.000Z,23.25
2022-12-18T06:21:18.846Z,21.10
2022-12-18T06:23:45.530Z,21.10
2022-12-18T06:26:13.808Z,18.20
2022-12-18T06:28:40.651Z,20.83
2022-12-18T06:31:08.566Z,20.65
2022-12-18T06:33:36.717Z,21.98
2022-12-18T06:36:12.287Z,20.95
2022-12-18T06:38:42.024Z,24.52
2022-12-18T06:41:20.463Z,22.25
2022-12-18T06:43:47.357Z,19.98
2022-12-18T06:46:14.463Z,20.55
2022-12-18T06:48:41.470Z,24.13
2022-12-18T06:51:08.611Z,19.73
2022-12-18T06:53:36.539Z,19.33
2022-12-18T06:56:10.717Z,21.63
2022-12-18T06:58:38.717Z,17.38
2022-12-18T07:01:07.816Z,23.33
2022-12-18T07:03:35.219Z,17.63
2022-12-18T07:06:02.317Z,20.88
2022-12-18T07:08:31.248Z,24.60
2022-12-18T07:10:58.575Z,21.02
2022-12-18T07:13:25.435Z,19.05
2022-12-18T07:15:52.389Z,19.08
2022-12-18T07:18:19.131Z,22.25
2022-12-18T07:20:47.762Z,23.33
2022-12-18T07:23:15.385Z,20.77
2022-12-18T07:25:42.261Z,19.70
2022-12-18T07:28:14.150Z,20.42
2022-12-18T07:30:43.956Z,17.90
2022-12-18T07:33:10.769Z,19.35
2022-12-18T07:35:40.599Z,18.02
2022-12-18T07:38:07.442Z,21.10
2022-12-18T07:40:34.178Z,19.52
2022-12-18T07:43:00.921Z,18.38
2022-12-18T07:45:27.833Z,21.10
2022-12-18T07:47:54.607Z,21.23
2022-12-18T07:50:21.399Z,19.88
2022-12-18T07:52:48.191Z,18.73
2022-12-18T07:55:15.033Z,17.73
2022-12-18T07:57:49.999Z,17.52
2022-12-18T08:00:18.398Z,19.90
2022-12-18T08:02:45.216Z,19.05
2022-12-18T08:05:12.092Z,17.15
2022-12-18T08:07:38.824Z,20.17
2022-12-18T08:10:06.158Z,19.17
2022-12-18T08:12:33.327Z,20.38
2022-12-18T08:15:00.131Z,17.38
2022-12-18T08:17:26.916Z,16.20
2022-12-18T08:19:53.561Z,19.27
2022-12-18T08:22:20.288Z,13.55
2022-12-18T08:24:48.104Z,19.17
2022-12-18T08:27:29.245Z,17.45
2022-12-18T08:29:57.335Z,20.63
2022-12-18T08:32:25.192Z,15.00
2022-12-18T08:34:51.919Z,19.67
2022-12-18T08:37:18.754Z,20.38
2022-12-18T08:39:45.596Z,18.40
2022-12-18T08:42:30.989Z,17.95
2022-12-18T08:44:57.834Z,16.77
2022-12-18T08:47:24.709Z,17.23
2022-12-18T08:49:51.554Z,16.63
2022-12-18T08:52:18.449Z,15.82
2022-12-18T08:54:45.266Z,16.25
2022-12-18T08:57:11.976Z,18.05
2022-12-18T08:59:38.624Z,20.38
2022-12-18T09:02:05.485Z,18.27
2022-12-18T09:04:32.612Z,15.35
2022-12-18T09:06:59.453Z,17.38
2022-12-18T09:09:26.202Z,17.00
2022-12-18T09:11:52.882Z,16.50
2022-12-18T09:14:19.578Z,15.93
2022-12-18T09:16:46.421Z,16.67
2022-12-18T09:19:13.281Z,19.23
2022-12-18T09:21:44.684Z,15.88
2022-12-18T09:24:15.716Z,18.25
2022-12-18T09:26:43.758Z,17.27
2022-12-18T09:29:13.991Z,17.23
2022-12-18T09:31:41.600Z,16.60
2022-12-18T09:34:08.716Z,18.10
2022-12-18T09:36:36.780Z,15.43
2022-12-18T09:39:08.258Z,18.83
2022-12-18T09:41:54.671Z,14.73
2022-12-18T09:44:24.560Z,16.83
2022-12-18T09:47:14.474Z,17.30
2022-12-18T09:49:46.896Z,14.50
2022-12-18T09:55:00.194Z,16.77
2022-12-18T09:57:28.448Z,13.57
2022-12-18T10:00:23.421Z,15.10
2022-12-18T10:02:53.005Z,13.48
2022-12-18T10:05:46.042Z,16.50
2022-12-18T10:08:24.094Z,14.77
2022-12-18T10:10:54.466Z,16.95
2022-12-18T10:13:42.712Z,15.88
2022-12-18T10:16:30.801Z,17.13
2022-12-18T10:19:32.664Z,15.02
2022-12-18T10:22:24.858Z,13.70
2022-12-18T10:25:15.470Z,14.35
2022-12-18T10:27:42.242Z,15.82
2022-12-18T10:30:18.149Z,16.60
2022-12-18T10:32:45.042Z,15.57
2022-12-18T10:35:27.954Z,15.75
2022-12-18T10:38:02.178Z,16.02
2022-12-18T10:40:28.959Z,16.55
2022-12-18T10:43:35.727Z,14.13
2022-12-18T10:46:08.800Z,15.20
2022-12-18T10:48:47.683Z,15.55
2022-12-18T10:51:40.802Z,16.60
2022-12-18T10:54:18.930Z,14.15
2022-12-18T10:56:46.437Z,16.10
2022-12-18T10:59:15.741Z,14.63
2022-12-18T11:01:53.070Z,14.05
2022-12-18T11:04:22.836Z,13.32
2022-12-18T11:07:05.351Z,17.30
2022-12-18T11:09:40.642Z,14.93
2022-12-18T11:12:16.541Z,21.35
2022-12-18T11:14:54.547Z,16.30
2022-12-18T11:17:32.196Z,17.95
2022-12-18T11:20:29.171Z,15.95
2022-12-18T11:22:59.265Z,15.23
2022-12-18T11:25:34.131Z,16.40
2022-12-18T11:28:05.300Z,21.25
2022-12-18T11:30:37.310Z,18.10
2022-12-18T11:33:22.790Z,17.10
2022-12-18T11:36:10.565Z,16.92
2022-12-18T11:38:40.463Z,15.30
2022-12-18T11:41:46.289Z,14.43
2022-12-18T11:44:20.069Z,17.40
2022-12-18T11:46:54.821Z,14.00
2022-12-18T11:49:27.832Z,14.80
2022-12-18T11:52:27.681Z,14.05
2022-12-18T11:54:59.481Z,13.57
2022-12-18T11:57:31.908Z,15.15
2022-12-18T12:02:55.940Z,14.05
2022-12-18T12:05:41.498Z,16.55
2022-12-18T12:08:30.400Z,15.43
2022-12-18T12:11:25.305Z,13.77
2022-12-18T12:13:52.056Z,13.70
2022-12-18T12:16:19.107Z,16.02
2022-12-18T12:19:02.976Z,15.73
2022-12-18T12:21:42.909Z,13.20
2022-12-18T12:24:37.519Z,15.18
2022-12-18T12:27:32.522Z,15.13
2022-12-18T12:30:05.151Z,14.90
2022-12-18T12:33:10.290Z,14.57
2022-12-18T12:35:42.817Z,15.73
2022-12-18T12:40:54.971Z,17.10
2022-12-18T12:43:37.087Z,16.92
2022-12-18T12:46:13.238Z,16.70
2022-12-18T12:48:49.716Z,15.52
2022-12-18T12:51:21.218Z,14.95
2022-12-18T12:53:49.922Z,16.17
2022-12-18T12:56:20.280Z,14.95
2022-12-18T12:59:12.009Z,16.25
2022-12-18T13:02:03.400Z,15.20
2022-12-18T13:04:43.443Z,16.30
2022-12-18T13:07:20.522Z,16.48
2022-12-18T13:10:15.489Z,18.88
2022-12-18T13:12:59.566Z,15.18
2022-12-18T13:16:01.629Z,17.08
2022-12-18T13:18:30.011Z,17.15
2022-12-18T13:21:02.901Z,18.92
2022-12-18T13:23:33.830Z,17.48
2022-12-18T13:26:12.552Z,17.70
2022-12-18T13:28:48.562Z,16.73
2022-12-18T13:31:36.649Z,17.40
2022-12-18T13:34:28.523Z,16.35
2022-12-18T13:37:17.733Z,15.82
2022-12-18T13:39:44.603Z,15.52
2022-12-18T13:42:31.453Z,18.60
2022-12-18T13:44:59.230Z,16.88
2022-12-18T13:47:38.348Z,18.15
2022-12-18T13:50:28.588Z,17.15
2022-12-18T13:52:59.322Z,18.30
2022-12-18T13:55:28.778Z,15.18
2022-12-18T13:58:05.975Z,17.30
2022-12-18T14:00:32.958Z,14.63
2022-12-18T14:03:00.672Z,14.40
2022-12-18T14:05:33.454Z,15.55
2022-12-18T14:08:14.582Z,15.65
2022-12-18T14:10:48.268Z,17.55
2022-12-18T14:13:25.431Z,15.73
2022-12-18T14:15:52.672Z,14.68
2022-12-18T14:18:43.185Z,16.65
2022-12-18T14:21:30.683Z,16.73
2022-12-18T14:24:09.572Z,14.52
2022-12-18T14:26:36.455Z,15.80
2022-12-18T14:29:25.222Z,17.73
2022-12-18T14:32:17.385Z,18.02
2022-12-18T14:37:14.014Z,18.02
2022-12-18T14:39:41.163Z,14.75
2022-12-18T14:42:12.279Z,15.55
2022-12-18T14:44:50.547Z,18.25
2022-12-18T14:47:24.480Z,15.60
2022-12-18T14:49:51.215Z,16.63
2022-12-18T14:52:30.245Z,17.58
2022-12-18T14:54:56.992Z,18.25
2022-12-18T14:57:28.337Z,19.30
2022-12-18T15:00:08.986Z,15.80
2022-12-18T15:02:37.337Z,16.27
2022-12-18T15:05:25.580Z,16.42
2022-12-18T15:07:54.420Z,19.20
2022-12-18T15:10:23.457Z,20.88
2022-12-18T15:12:51.913Z,20.50
2022-12-18T15:15:37.262Z,18.38
2022-12-18T15:18:11.126Z,16.30
2022-12-18T15:20:42.318Z,15.27
2022-12-18T15:23:21.088Z,14.57
2022-12-18T15:25:50.029Z,15.25
2022-12-18T15:28:23.017Z,17.95
2022-12-18T15:31:17.426Z,15.65
2022-12-18T15:33:54.146Z,15.40
2022-12-18T15:36:26.793Z,17.83
2022-12-18T15:38:57.894Z,16.80
2022-12-18T15:41:36.058Z,18.75
2022-12-18T15:44:04.183Z,19.17
2022-12-18T15:46:32.020Z,20.40
2022-12-18T15:49:02.120Z,16.88
2022-12-18T15:51:33.967Z,15.73
2022-12-18T15:54:06.153Z,17.33
2022-12-18T15:56:51.678Z,17.75
2022-12-18T15:59:20.326Z,19.10
2022-12-18T16:01:49.212Z,16.65
2022-12-18T16:04:18.402Z,17.05
2022-12-18T16:07:13.321Z,22.65
2022-12-18T16:09:32.209Z,15.65
2022-12-18T16:12:02.022Z,18.30
2022-12-18T16:14:30.863Z,21.70
2022-12-18T16:17:00.626Z,16.25
2022-12-18T16:19:28.444Z,21.33
2022-12-18T16:21:57.296Z,17.98
2022-12-18T16:24:29.599Z,19.55
2022-12-18T16:26:59.770Z,17.63
2022-12-18T16:29:28.546Z,17.17
2022-12-18T16:31:56.475Z,19.40
2022-12-18T16:34:33.821Z,18.10
2022-12-18T16:37:08.643Z,20.05
2022-12-18T16:39:36.617Z,20.92
2022-12-18T16:42:06.350Z,19.95
2022-12-18T16:44:34.562Z,22.08
2022-12-18T16:47:03.196Z,17.40
2022-12-18T16:49:30.179Z,20.17
2022-12-18T16:51:57.330Z,15.18
2022-12-18T16:54:24.172Z,15.27
2022-12-18T16:56:52.193Z,18.70
2022-12-18T16:59:19.395Z,17.05
2022-12-18T17:01:47.499Z,20.15
2022-12-18T17:04:14.975Z,18.95
2022-12-18T17:06:44.022Z,20.67
2022-12-18T17:09:16.138Z,18.00
2022-12-18T17:11:43.921Z,21.52
2022-12-18T17:14:15.710Z,19.27
2022-12-18T17:16:42.552Z,18.83
2022-12-18T17:19:13.733Z,16.83
2022-12-18T17:21:45.260Z,23.73
2022-12-18T17:24:12.149Z,19.13
2022-12-18T17:26:39.394Z,21.15
2022-12-18T17:29:06.363Z,16.83
2022-12-18T17:31:34.210Z,17.65
2022-12-18T17:34:04.382Z,20.33
2022-12-18T17:36:32.390Z,15.95
2022-12-18T17:39:01.698Z,18.67
2022-12-18T17:41:29.874Z,19.00
2022-12-18T17:44:02.143Z,16.85
2022-12-18T17:46:30.767Z,21.38
2022-12-18T17:48:58.900Z,16.92
2022-12-18T17:51:26.203Z,23.05
2022-12-18T17:53:53.204Z,23.08
2022-12-18T17:56:22.757Z,22.75
2022-12-18T17:58:52.976Z,22.63
2022-12-18T18:01:25.047Z,18.67
2022-12-18T18:03:54.136Z,15.82
2022-12-18T18:06:21.382Z,17.70
2022-12-18T18:08:48.490Z,21.70
2022-12-18T18:11:36.839Z,23.33
2022-12-18T18:14:07.011Z,22.50
2022-12-18T18:16:38.033Z,20.20
2022-12-18T18:19:08.045Z,23.70
2022-12-18T18:21:37.725Z,21.60
2022-12-18T18:24:06.105Z,18.48
2022-12-18T18:26:35.309Z,24.27
2022-12-18T18:29:04.162Z,14.63
2022-12-18T18:31:34.959Z,20.23
2022-12-18T18:34:06.946Z,17.98
2022-12-18T18:36:35.012Z,18.73
2022-12-18T18:39:02.397Z,19.52
2022-12-18T18:41:30.571Z,19.38
2022-12-18T18:43:58.778Z,13.35
2022-12-18T18:46:26.275Z,21.05
2022-12-18T18:48:53.380Z,16.52
2022-12-18T18:51:21.408Z,14.77
2022-12-18T18:53:50.213Z,18.75
2022-12-18T18:59:05.959Z,18.17
2022-12-18T19:01:32.978Z,21.92
2022-12-18T19:04:01.064Z,22.90
2022-12-18T19:06:29.434Z,26.42
2022-12-18T19:08:57.454Z,25.38
2022-12-18T19:11:44.476Z,16.90
2022-12-18T19:14:13.424Z,24.80
2022-12-18T19:16:41.182Z,22.23
2022-12-18T19:19:08.286Z,20.42
2022-12-18T19:21:35.785Z,21.45
2022-12-18T19:24:02.909Z,22.40
2022-12-18T19:26:30.342Z,23.73
2022-12-18T19:29:05.479Z,22.52
2022-12-18T19:31:35.925Z,19.98
2022-12-18T19:34:04.978Z,17.92
2022-12-18T19:36:32.869Z,13.55
2022-12-18T19:39:01.744Z,15.05
2022-12-18T19:41:31.282Z,22.55
2022-12-18T19:44:00.130Z,20.85
2022-12-18T19:46:28.926Z,19.92
2022-12-18T19:48:55.744Z,19.55
2022-12-18T19:51:27.585Z,21.38
2022-12-18T19:53:58.962Z,20.90
2022-12-18T19:56:29.945Z,15.15
2022-12-18T19:58:56.654Z,19.27
2022-12-18T20:01:25.297Z,18.83
2022-12-18T20:03:54.431Z,21.15
2022-12-18T20:06:30.322Z,22.02
2022-12-18T20:09:00.472Z,19.88
2022-12-18T20:11:30.855Z,19.05
2022-12-18T20:14:01.087Z,22.80
2022-12-18T20:16:29.391Z,17.25
2022-12-18T20:18:57.636Z,22.23
2022-12-18T20:21:25.214Z,21.20
2022-12-18T20:23:52.441Z,20.48
2022-12-18T20:26:19.438Z,20.77
2022-12-18T20:28:46.588Z,20.80
2022-12-18T20:31:14.196Z,24.40
2022-12-18T20:33:42.600Z,21.67
2022-12-18T20:36:15.237Z,20.90
2022-12-18T20:38:43.644Z,22.38
2022-12-18T20:41:20.310Z,23.17
2022-12-18T20:43:47.678Z,20.92
2022-12-18T20:46:16.712Z,19.85
2022-12-18T20:48:44.730Z,21.00
2022-12-18T20:51:15.659Z,21.38
2022-12-18T20:53:43.117Z,23.90
2022-12-18T20:56:13.583Z,21.85
2022-12-18T20:58:44.913Z,19.85
2022-12-18T21:01:18.076Z,22.45
2022-12-18T21:03:46.171Z,20.48
2022-12-18T21:06:15.580Z,19.27
2022-12-18T21:08:42.897Z,23.55
2022-12-18T21:11:35.622Z,21.35
2022-12-18T21:14:04.613Z,21.50
2022-12-18T21:16:31.660Z,22.55
2022-12-18T21:18:59.067Z,19.67
2022-12-18T21:21:28.471Z,23.73
2022-12-18T21:23:55.208Z,21.33
2022-12-18T21:26:24.309Z,22.80
2022-12-18T21:29:00.159Z,22.48
2022-12-18T21:31:32.941Z,22.10
2022-12-18T21:34:02.479Z,23.70
2022-12-18T21:36:30.676Z,23.73
2022-12-18T21:38:58.350Z,21.45
2022-12-18T21:41:44.837Z,24.27
2022-12-18T21:44:15.731Z,23.20
2022-12-18T21:46:51.341Z,23.30
2022-12-18T21:49:21.755Z,16.08
2022-12-18T21:51:57.488Z,23.63
2022-12-18T21:54:26.247Z,21.77
2022-12-18T21:56:54.170Z,24.02
2022-12-18T21:59:27.247Z,18.80
2022-12-18T22:01:55.957Z,23.13
2022-12-18T22:04:23.901Z,21.73
2022-12-18T22:06:53.306Z,20.48
2022-12-18T22:09:22.119Z,21.50
2022-12-18T22:11:49.858Z,22.23
2022-12-18T22:14:17.018Z,23.00
2022-12-18T22:16:44.157Z,17.77
2022-12-18T22:19:12.485Z,23.02
2022-12-18T22:21:43.915Z,18.90
2022-12-18T22:24:17.436Z,23.40
2022-12-18T22:26:44.869Z,21.83
2022-12-18T22:29:35.451Z,21.42
2022-12-18T22:32:02.744Z,17.55
2022-12-18T22:34:34.236Z,17.70
2022-12-18T22:37:03.365Z,21.33
2022-12-18T22:39:30.931Z,22.17
2022-12-18T22:41:58.413Z,24.52
2022-12-18T22:44:25.583Z,21.92
2022-12-18T22:47:06.808Z,24.30
2022-12-18T22:49:35.199Z,20.50
2022-12-18T22:52:07.080Z,16.83
2022-12-18T22:54:33.871Z,21.27
2022-12-18T22:57:00.768Z,23.02
2022-12-18T22:59:27.610Z,25.02
2022-12-18T23:01:58.821Z,23.30
2022-12-18T23:04:33.429Z,22.40
2022-12-18T23:07:05.501Z,22.35
2022-12-18T23:09:32.899Z,21.83
2022-12-18T23:12:00.157Z,23.95
2022-12-18T23:14:27.763Z,21.00
2022-12-18T23:16:55.631Z,22.73
2022-12-18T23:19:23.562Z,23.08
2022-12-18T23:21:51.243Z,13.93
2022-12-18T23:24:18.238Z,18.13
2022-12-18T23:26:45.065Z,21.38
2022-12-18T23:29:11.737Z,23.42
2022-12-18T23:31:39.524Z,24.08
2022-12-18T23:34:07.381Z,24.48
2022-12-18T23:36:45.640Z,23.23
2022-12-18T23:39:22.339Z,21.73
2022-12-18T23:41:58.171Z,19.05
2022-12-18T23:44:25.464Z,22.80
2022-12-18T23:46:52.870Z,19.65
2022-12-18T23:49:19.789Z,24.30
2022-12-18T23:51:46.671Z,19.83
2022-12-18T23:54:13.413Z,19.00
2022-12-18T23:56:40.345Z,22.23
2022-12-18T23:59:07.048Z,22.50
